Time;durP1;ratioP1;P1;durP2;ratioP2;P2;SDS_P1;SDS_P2;PMS_P1;PMS_P2;Temp;Humidity;BMP_temperature;BMP_pressure;BME280_temperature;BME280_humidity;BME280_pressure;Samples;Min_cycle;Max_cycle;Signal;HPM_P1;HPM_P2
2022/11/11 00:01:14;;;;;;;13.98;6.38;;;11.70;99.90;;;;;;5093580;28;20052;-31
2022/11/11 00:03:41;;;;;;;16.65;6.15;;;11.70;99.90;;;;;;5094145;28;20044;-30
2022/11/11 00:06:12;;;;;;;13.23;6.25;;;11.60;99.90;;;;;;5093499;28;20048;-30
2022/11/11 00:08:38;;;;;;;12.07;6.70;;;11.60;99.90;;;;;;5094141;28;20059;-31
2022/11/11 00:11:07;;;;;;;13.05;6.10;;;11.60;99.90;;;;;;5093463;28;20440;-30
2022/11/11 00:13:33;;;;;;;14.55;7.53;;;11.60;99.90;;;;;;5093177;28;20055;-31
2022/11/11 00:16:07;;;;;;;17.42;7.68;;;11.60;99.90;;;;;;5093384;28;20047;-30
2022/11/11 00:26:47;;;;;;;15.18;7.20;;;11.60;99.90;;;;;;5094226;28;20054;-31
2022/11/11 00:29:13;;;;;;;13.77;6.97;;;11.50;99.90;;;;;;5093303;28;20476;-30
2022/11/11 00:32:21;;;;;;;21.33;8.70;;;11.60;99.90;;;;;;5094084;28;20052;-31
2022/11/11 00:34:24;;;;;;;17.55;6.35;;;11.60;99.90;;;;;;5093754;28;20458;-31
2022/11/11 00:36:50;;;;;;;17.38;7.38;;;11.60;99.90;;;;;;5092625;28;20130;-30
2022/11/11 00:39:16;;;;;;;16.33;7.70;;;11.60;99.90;;;;;;5094051;28;20105;-31
2022/11/11 00:41:41;;;;;;;21.35;8.57;;;11.60;99.90;;;;;;5093455;28;20052;-30
2022/11/11 00:44:07;;;;;;;17.08;8.57;;;11.60;99.90;;;;;;5093174;28;20068;-30
2022/11/11 00:52:15;;;;;;;12.77;6.95;;;11.50;99.90;;;;;;5097067;28;20181;-30
2022/11/11 00:54:41;;;;;;;19.25;9.35;;;11.50;99.90;;;;;;5096596;28;20529;-31
2022/11/11 00:57:06;;;;;;;16.40;7.97;;;11.50;99.90;;;;;;5096609;28;20048;-30
2022/11/11 00:59:33;;;;;;;15.05;8.90;;;11.50;99.90;;;;;;5096549;28;20131;-31
2022/11/11 01:01:59;;;;;;;15.30;7.75;;;11.50;99.90;;;;;;5096523;28;20083;-30
2022/11/11 01:04:24;;;;;;;22.83;8.82;;;11.50;99.90;;;;;;5097285;28;20347;-31
2022/11/11 01:06:50;;;;;;;18.65;9.38;;;11.50;99.90;;;;;;5096411;28;20036;-30
2022/11/11 01:09:16;;;;;;;18.77;8.57;;;11.60;99.90;;;;;;5095548;28;20244;-31
2022/11/11 01:11:41;;;;;;;17.75;8.30;;;11.50;99.90;;;;;;5096211;28;20056;-31
2022/11/11 01:14:07;;;;;;;20.30;8.40;;;11.60;99.90;;;;;;5096272;28;20055;-30
2022/11/11 01:16:33;;;;;;;17.77;8.38;;;11.60;99.90;;;;;;5096239;28;20051;-31
2022/11/11 01:18:58;;;;;;;23.55;8.52;;;11.50;99.90;;;;;;5096126;28;20096;-31
2022/11/11 01:21:24;;;;;;;20.90;9.05;;;11.50;99.90;;;;;;5096118;28;20136;-30
2022/11/11 01:23:52;;;;;;;15.73;8.02;;;11.50;99.90;;;;;;5096070;28;20421;-31
2022/11/11 01:26:26;;;;;;;16.23;8.20;;;11.60;99.90;;;;;;5096576;28;20051;-30
2022/11/11 01:28:54;;;;;;;15.43;8.13;;;11.60;99.90;;;;;;5094786;28;20036;-31
2022/11/11 01:31:21;;;;;;;16.73;8.75;;;11.60;99.90;;;;;;5096505;28;20048;-30
2022/11/11 01:33:47;;;;;;;15.35;8.18;;;11.60;99.90;;;;;;5094692;28;20044;-32
2022/11/11 01:36:16;;;;;;;16.02;7.60;;;11.70;99.90;;;;;;5095828;28;20059;-31
2022/11/11 01:38:42;;;;;;;16.63;7.95;;;11.70;99.90;;;;;;5095830;28;20054;-30
2022/11/11 01:43:55;;;;;;;24.17;8.65;;;11.70;99.90;;;;;;5096350;28;20048;-31
2022/11/11 01:46:37;;;;;;;17.45;8.05;;;11.70;99.90;;;;;;5095646;28;20054;-30
2022/11/11 01:49:40;;;;;;;18.00;8.25;;;11.60;99.90;;;;;;5095596;28;20047;-30
2022/11/11 01:52:09;;;;;;;17.45;8.65;;;11.70;99.90;;;;;;5095540;28;20052;-30
2022/11/11 01:54:47;;;;;;;17.80;8.63;;;11.60;99.90;;;;;;5094297;28;20494;-31
2022/11/11 01:57:33;;;;;;;18.48;8.52;;;11.70;99.90;;;;;;5095942;28;20059;-31
2022/11/11 02:00:03;;;;;;;13.98;8.07;;;11.60;99.90;;;;;;5095372;28;20051;-31
2022/11/11 02:02:49;;;;;;;17.38;8.90;;;11.60;99.90;;;;;;5095406;28;20040;-30
2022/11/11 02:08:09;;;;;;;13.88;8.70;;;11.60;99.90;;;;;;5096126;28;20124;-31
2022/11/11 02:10:37;;;;;;;17.40;8.82;;;11.50;99.90;;;;;;5095177;28;20084;-30
2022/11/11 02:15:47;;;;;;;19.55;10.07;;;11.70;99.90;;;;;;5096003;28;20420;-31
2022/11/11 02:18:12;;;;;;;21.25;9.82;;;11.60;99.90;;;;;;5095120;28;20044;-30
2022/11/11 02:20:42;;;;;;;20.30;7.85;;;11.60;99.90;;;;;;5094057;28;20056;-31
2022/11/11 02:23:13;;;;;;;20.42;8.95;;;11.60;99.90;;;;;;5094976;28;20047;-30
2022/11/11 02:25:41;;;;;;;14.88;8.48;;;11.60;99.90;;;;;;5095778;28;20367;-30
2022/11/11 02:28:07;;;;;;;15.45;8.27;;;11.60;99.90;;;;;;5093713;28;20486;-30
2022/11/11 02:30:33;;;;;;;20.55;9.55;;;11.60;99.90;;;;;;5094820;28;20119;-31
2022/11/11 02:32:59;;;;;;;18.05;9.15;;;11.60;99.90;;;;;;5094730;28;20189;-32
2022/11/11 02:35:34;;;;;;;17.17;8.43;;;11.60;99.90;;;;;;5094651;28;20047;-30
2022/11/11 02:38:07;;;;;;;24.08;10.00;;;11.60;99.90;;;;;;5095544;28;20043;-31
2022/11/11 02:43:26;;;;;;;15.30;9.60;;;11.70;99.90;;;;;;5093962;28;20094;-31
2022/11/11 02:45:52;;;;;;;23.02;9.70;;;11.60;99.90;;;;;;5094491;28;20051;-31
2022/11/11 02:48:17;;;;;;;17.52;9.73;;;11.60;99.90;;;;;;5093271;28;20043;-30
2022/11/11 02:50:43;;;;;;;16.17;10.05;;;11.60;99.90;;;;;;5094413;28;20048;-31
2022/11/11 02:53:09;;;;;;;18.90;9.30;;;11.60;99.90;;;;;;5095217;28;20047;-30
2022/11/11 02:55:35;;;;;;;15.07;8.20;;;11.60;99.90;;;;;;5094927;28;20048;-30
2022/11/11 02:58:01;;;;;;;16.38;10.07;;;11.50;99.90;;;;;;5094894;28;20480;-32
2022/11/11 03:00:26;;;;;;;24.67;12.40;;;11.50;99.90;;;;;;5094555;28;20580;-30
2022/11/11 03:02:52;;;;;;;22.52;11.98;;;11.50;99.90;;;;;;5094268;28;20083;-29
2022/11/11 03:05:18;;;;;;;17.45;10.70;;;11.40;99.90;;;;;;5092948;28;20040;-31
2022/11/11 03:07:44;;;;;;;19.33;11.75;;;11.40;99.90;;;;;;5076661;28;20052;-31
2022/11/11 03:10:09;;;;;;;21.25;11.50;;;11.40;99.90;;;;;;5093564;28;20511;-31
2022/11/11 03:12:35;;;;;;;23.75;13.02;;;11.30;99.90;;;;;;5094138;28;20058;-31
2022/11/11 03:15:01;;;;;;;21.88;13.00;;;11.30;99.90;;;;;;5094018;28;20040;-31
2022/11/11 03:17:39;;;;;;;28.50;13.60;;;11.30;99.90;;;;;;5094033;28;20402;-32
2022/11/11 03:23:13;;;;;;;20.92;12.43;;;11.20;99.90;;;;;;5094091;28;20058;-31
2022/11/11 03:25:41;;;;;;;21.73;12.43;;;11.20;99.90;;;;;;5092785;28;20185;-30
2022/11/11 03:28:09;;;;;;;27.40;14.50;;;11.20;99.90;;;;;;5094179;28;20044;-31
2022/11/11 03:30:36;;;;;;;23.30;15.00;;;11.20;99.90;;;;;;5093912;28;20052;-30
2022/11/11 03:33:03;;;;;;;29.02;14.80;;;11.10;99.90;;;;;;5094105;28;20074;-31
2022/11/11 03:35:29;;;;;;;22.65;15.38;;;11.10;99.90;;;;;;5093749;28;20055;-30
2022/11/11 03:40:39;;;;;;;24.50;14.60;;;11.00;99.90;;;;;;5094070;28;20402;-30
2022/11/11 03:43:05;;;;;;;34.42;16.83;;;11.00;99.90;;;;;;5093730;28;20044;-31
2022/11/11 03:45:31;;;;;;;29.25;18.00;;;11.00;99.90;;;;;;5093401;28;20486;-30
2022/11/11 03:47:57;;;;;;;27.00;17.67;;;11.10;99.90;;;;;;5093720;28;20105;-31
2022/11/11 03:50:23;;;;;;;25.92;16.60;;;11.00;99.90;;;;;;5093656;28;20040;-30
2022/11/11 03:52:49;;;;;;;28.20;17.80;;;11.00;99.90;;;;;;5093592;28;20105;-30
2022/11/11 03:55:15;;;;;;;27.73;17.38;;;11.00;99.90;;;;;;5093544;28;20079;-31
2022/11/11 03:57:45;;;;;;;25.92;17.67;;;11.00;99.90;;;;;;5092616;28;20127;-30
2022/11/11 04:00:25;;;;;;;27.27;18.10;;;11.00;99.90;;;;;;5093572;28;20044;-30
2022/11/11 04:11:17;;;;;;;29.63;18.30;;;11.00;99.90;;;;;;5093443;28;20054;-30
2022/11/11 04:16:31;;;;;;;34.22;17.77;;;11.00;99.90;;;;;;5093430;28;20059;-30
2022/11/11 04:21:44;;;;;;;29.02;18.23;;;11.00;99.90;;;;;;5095018;28;20469;-30
2022/11/11 04:27:12;;;;;;;27.85;19.17;;;11.00;99.90;;;;;;5097827;28;20095;-30
2022/11/11 04:29:38;;;;;;;26.20;18.80;;;11.00;99.90;;;;;;5097262;28;20097;-30
2022/11/11 04:34:57;;;;;;;29.65;20.33;;;11.00;99.90;;;;;;5095901;28;20055;-30
2022/11/11 04:37:25;;;;;;;30.27;18.80;;;10.80;99.90;;;;;;5079144;28;20048;-31
2022/11/11 04:42:38;;;;;;;33.17;19.13;;;11.00;99.90;;;;;;5097805;28;20063;-30
2022/11/11 04:47:52;;;;;;;31.17;20.05;;;11.00;99.90;;;;;;5096938;28;20078;-30
2022/11/11 04:50:18;;;;;;;35.92;21.23;;;10.90;99.90;;;;;;5097304;28;20135;-31
2022/11/11 04:52:43;;;;;;;29.67;19.52;;;10.90;99.90;;;;;;5096690;28;20079;-31
2022/11/11 04:57:53;;;;;;;34.28;21.05;;;10.90;99.90;;;;;;5096686;28;20048;-32
2022/11/11 05:00:19;;;;;;;28.08;18.67;;;10.90;99.90;;;;;;5096622;28;20052;-31
2022/11/11 05:10:58;;;;;;;32.67;22.20;;;10.90;99.90;;;;;;5096015;28;20406;-30
2022/11/11 05:21:52;;;;;;;38.05;22.00;;;10.80;99.90;;;;;;5096230;28;20545;-31
2022/11/11 05:27:02;;;;;;;36.75;22.55;;;10.70;99.90;;;;;;5096120;28;20098;-29
2022/11/11 05:29:27;;;;;;;34.30;19.60;;;10.60;99.90;;;;;;5095743;28;20087;-29
2022/11/11 05:31:53;;;;;;;37.25;22.20;;;10.50;99.90;;;;;;5095536;28;20055;-29
2022/11/11 05:34:19;;;;;;;40.67;23.77;;;10.50;99.90;;;;;;5095879;28;20081;-30
2022/11/11 05:36:44;;;;;;;38.15;22.10;;;10.50;99.90;;;;;;5096149;28;20104;-31
2022/11/11 05:39:10;;;;;;;30.98;21.13;;;10.40;99.90;;;;;;5096644;28;20484;-29
2022/11/11 05:41:36;;;;;;;44.33;25.85;;;10.30;99.90;;;;;;5096047;28;20382;-31
2022/11/11 05:44:01;;;;;;;33.88;21.33;;;10.30;99.90;;;;;;5095374;28;20458;-30
2022/11/11 05:46:27;;;;;;;42.55;24.63;;;10.30;99.90;;;;;;5094812;28;20048;-30
2022/11/11 05:51:36;;;;;;;40.83;25.80;;;10.30;99.90;;;;;;5095678;28;20197;-30
2022/11/11 05:54:02;;;;;;;37.03;23.80;;;10.30;99.90;;;;;;5094462;28;20127;-30
2022/11/11 05:56:28;;;;;;;39.33;23.23;;;10.20;99.90;;;;;;5095488;28;20047;-30
2022/11/11 05:58:54;;;;;;;40.25;22.90;;;10.10;99.90;;;;;;5095365;28;20048;-30
2022/11/11 06:01:19;;;;;;;40.05;26.00;;;10.10;99.90;;;;;;5095368;28;20054;-30
2022/11/11 06:03:45;;;;;;;42.28;25.63;;;10.00;99.90;;;;;;5095868;28;20040;-30
2022/11/11 06:06:12;;;;;;;46.92;25.92;;;10.00;99.90;;;;;;5095285;28;20048;-30
2022/11/11 06:08:37;;;;;;;41.83;26.45;;;10.00;99.90;;;;;;5095219;28;20044;-30
2022/11/11 06:11:03;;;;;;;43.47;25.73;;;9.90;99.90;;;;;;5095091;28;20047;-31
2022/11/11 06:13:29;;;;;;;42.58;26.77;;;9.90;99.90;;;;;;5095445;28;20142;-30
2022/11/11 06:15:56;;;;;;;38.88;23.23;;;9.90;99.90;;;;;;5094776;28;20044;-29
2022/11/11 06:18:22;;;;;;;44.90;26.95;;;9.90;99.90;;;;;;5095884;28;20119;-31
2022/11/11 06:20:58;;;;;;;43.30;25.42;;;10.00;99.90;;;;;;5095542;28;20091;-30
2022/11/11 06:23:25;;;;;;;39.45;24.02;;;10.10;99.90;;;;;;5094964;28;20119;-30
2022/11/11 06:28:37;;;;;;;35.05;24.17;;;10.30;99.90;;;;;;5095227;28;20048;-30
2022/11/11 06:31:03;;;;;;;42.38;26.23;;;10.50;99.90;;;;;;5094799;28;20044;-30
2022/11/11 06:33:29;;;;;;;36.30;23.17;;;10.50;99.90;;;;;;5094738;28;20052;-30
2022/11/11 06:35:55;;;;;;;35.97;23.88;;;10.60;99.90;;;;;;5093526;28;20090;-30
2022/11/11 06:38:21;;;;;;;37.55;25.25;;;10.70;99.90;;;;;;5094645;28;20173;-30
2022/11/11 06:40:47;;;;;;;40.60;23.02;;;10.80;99.90;;;;;;5094593;28;20512;-30
2022/11/11 06:43:13;;;;;;;30.25;20.73;;;10.80;99.90;;;;;;5094300;28;20070;-31
2022/11/11 06:45:38;;;;;;;31.30;20.40;;;10.90;99.90;;;;;;5093730;28;20044;-29
2022/11/11 06:48:05;;;;;;;39.95;24.77;;;10.90;99.90;;;;;;5094511;28;20121;-30
2022/11/11 06:50:32;;;;;;;30.40;21.75;;;10.90;99.90;;;;;;5094462;28;20039;-32
2022/11/11 06:53:09;;;;;;;32.75;19.83;;;10.90;99.90;;;;;;5094294;28;20044;-31
2022/11/11 06:55:35;;;;;;;41.85;23.63;;;10.90;99.90;;;;;;5094322;28;20048;-30
2022/11/11 06:58:20;;;;;;;38.03;23.13;;;11.00;99.90;;;;;;5094393;28;20074;-30
2022/11/11 07:00:47;;;;;;;36.72;23.10;;;10.90;99.90;;;;;;5094625;28;20048;-30
2022/11/11 07:03:15;;;;;;;38.03;22.83;;;10.90;99.90;;;;;;5094256;28;20044;-30
2022/11/11 07:05:42;;;;;;;43.45;24.98;;;10.90;99.90;;;;;;5094193;28;20044;-31
2022/11/11 07:08:12;;;;;;;35.05;22.92;;;10.90;99.90;;;;;;5094988;28;20050;-31
2022/11/11 07:10:42;;;;;;;39.65;25.50;;;10.90;99.90;;;;;;5093183;28;20488;-31
2022/11/11 07:13:07;;;;;;;37.78;23.88;;;10.90;99.90;;;;;;5093751;28;20062;-29
2022/11/11 07:15:33;;;;;;;37.40;23.08;;;10.90;99.90;;;;;;5092831;28;20044;-31
2022/11/11 07:18:00;;;;;;;42.10;24.20;;;10.80;99.90;;;;;;5094628;28;20432;-30
2022/11/11 07:20:25;;;;;;;29.10;20.13;;;10.90;99.90;;;;;;5094031;28;20044;-30
2022/11/11 07:22:51;;;;;;;35.10;24.63;;;10.90;99.90;;;;;;5093002;28;20055;-31
2022/11/11 07:25:17;;;;;;;34.92;22.55;;;10.90;99.90;;;;;;5094226;28;20040;-30
2022/11/11 07:27:43;;;;;;;38.67;24.77;;;10.90;99.90;;;;;;5094471;28;20375;-30
2022/11/11 07:30:10;;;;;;;38.47;23.45;;;10.90;99.90;;;;;;5092751;28;20055;-30
2022/11/11 07:32:35;;;;;;;33.78;23.77;;;11.00;99.90;;;;;;5094502;28;20050;-30
2022/11/11 07:35:02;;;;;;;33.03;23.52;;;11.00;99.90;;;;;;5093743;28;20051;-30
2022/11/11 07:37:30;;;;;;;36.42;24.48;;;11.00;99.90;;;;;;5093830;28;20152;-30
2022/11/11 07:39:55;;;;;;;32.92;21.88;;;11.00;99.90;;;;;;5092761;28;20083;-31
2022/11/11 07:42:21;;;;;;;37.15;24.45;;;10.90;99.90;;;;;;5093636;28;20044;-30
2022/11/11 07:44:47;;;;;;;37.90;23.55;;;11.00;99.90;;;;;;5092493;28;20036;-30
2022/11/11 07:47:12;;;;;;;35.42;24.52;;;11.00;99.90;;;;;;5093652;28;20040;-30
2022/11/11 07:49:38;;;;;;;35.70;25.25;;;11.00;99.90;;;;;;5093610;28;20094;-31
2022/11/11 07:52:04;;;;;;;37.63;24.77;;;11.00;99.90;;;;;;5075850;28;20055;-32
2022/11/11 07:54:30;;;;;;;37.33;23.92;;;11.00;99.90;;;;;;5092468;28;20138;-30
2022/11/11 07:56:56;;;;;;;38.88;25.65;;;11.00;99.90;;;;;;5097774;28;20096;-30
2022/11/11 07:59:22;;;;;;;37.88;25.25;;;11.00;99.90;;;;;;5097712;28;20131;-29
2022/11/11 08:01:48;;;;;;;35.70;22.67;;;11.00;99.90;;;;;;5096331;28;20048;-30
2022/11/11 08:04:13;;;;;;;32.40;22.58;;;11.00;99.90;;;;;;5097319;28;20041;-31
2022/11/11 08:06:39;;;;;;;35.60;25.02;;;11.00;99.90;;;;;;5097731;28;20130;-31
2022/11/11 08:09:05;;;;;;;31.25;21.38;;;11.00;99.90;;;;;;5096065;28;20481;-30
2022/11/11 08:14:15;;;;;;;41.25;23.85;;;11.00;99.90;;;;;;5076949;28;20040;-30
2022/11/11 08:16:40;;;;;;;35.85;23.67;;;11.10;99.90;;;;;;5075880;28;20044;-30
2022/11/11 08:19:06;;;;;;;34.08;23.92;;;11.00;99.90;;;;;;5075847;28;20048;-29
2022/11/11 08:21:32;;;;;;;32.00;22.33;;;11.00;99.90;;;;;;5077077;28;20123;-30
2022/11/11 08:23:57;;;;;;;35.83;22.05;;;11.00;99.90;;;;;;5077002;28;20501;-30
2022/11/11 08:26:23;;;;;;;35.95;23.13;;;10.90;99.90;;;;;;5076927;28;20128;-30
2022/11/11 08:28:51;;;;;;;29.15;17.70;;;11.00;99.90;;;;;;5076775;28;20507;-30
2022/11/11 08:31:16;;;;;;;36.97;22.13;;;11.00;99.90;;;;;;5075661;28;20040;-30
2022/11/11 08:33:42;;;;;;;37.03;24.52;;;11.00;99.90;;;;;;5076787;28;20040;-30
2022/11/11 08:36:10;;;;;;;40.97;24.52;;;11.00;99.90;;;;;;5076703;28;20040;-30
2022/11/11 08:38:36;;;;;;;37.88;24.73;;;11.00;99.90;;;;;;5076648;28;20099;-30
2022/11/11 08:41:04;;;;;;;38.45;24.90;;;11.00;99.90;;;;;;5076710;28;20445;-30
2022/11/11 08:43:33;;;;;;;35.58;24.42;;;11.00;99.90;;;;;;5077310;28;20044;-30
2022/11/11 08:46:02;;;;;;;33.92;23.35;;;11.00;99.90;;;;;;5076483;28;20137;-30
2022/11/11 08:48:27;;;;;;;48.58;26.48;;;11.00;99.90;;;;;;5076539;28;20045;-30
2022/11/11 08:50:53;;;;;;;37.75;24.60;;;11.10;99.90;;;;;;5076395;28;20097;-30
2022/11/11 08:53:19;;;;;;;35.63;24.17;;;11.00;99.90;;;;;;5076399;28;20056;-32
2022/11/11 08:55:45;;;;;;;36.47;22.85;;;11.00;99.90;;;;;;5076596;28;20049;-30
2022/11/11 08:58:12;;;;;;;38.42;24.80;;;11.00;99.90;;;;;;5076300;28;20046;-30
2022/11/11 09:00:38;;;;;;;38.90;22.25;;;11.00;99.90;;;;;;5076836;28;20045;-31
2022/11/11 09:03:09;;;;;;;36.63;23.63;;;11.00;99.90;;;;;;5075094;28;20043;-30
2022/11/11 09:05:38;;;;;;;34.65;23.73;;;11.00;99.90;;;;;;5076223;28;20053;-30
2022/11/11 09:08:08;;;;;;;39.38;23.35;;;11.00;99.90;;;;;;5075929;28;20048;-29
2022/11/11 09:10:35;;;;;;;38.55;23.20;;;11.00;99.90;;;;;;5076422;28;20124;-30
2022/11/11 09:13:01;;;;;;;39.95;24.73;;;11.00;99.90;;;;;;5076352;28;20061;-31
2022/11/11 09:15:27;;;;;;;41.53;25.42;;;11.00;99.90;;;;;;5074769;28;20093;-30
2022/11/11 09:17:53;;;;;;;39.92;25.50;;;11.00;99.90;;;;;;5075912;28;20474;-28
2022/11/11 09:20:20;;;;;;;34.40;22.40;;;11.00;99.90;;;;;;5075868;28;20044;-30
2022/11/11 09:22:47;;;;;;;33.78;22.20;;;11.00;99.90;;;;;;5075837;28;20048;-31
2022/11/11 09:25:13;;;;;;;40.70;26.23;;;11.00;99.90;;;;;;5075816;28;20037;-29
2022/11/11 09:27:38;;;;;;;38.10;23.48;;;11.00;99.90;;;;;;5074697;28;20552;-31
2022/11/11 09:30:05;;;;;;;34.72;23.50;;;11.00;99.90;;;;;;5075785;28;20040;-29
2022/11/11 09:32:31;;;;;;;35.42;24.25;;;10.90;99.90;;;;;;5075934;28;20105;-30
2022/11/11 09:34:57;;;;;;;33.03;21.98;;;10.90;99.90;;;;;;5075608;28;20041;-30
2022/11/11 09:37:23;;;;;;;39.75;23.75;;;10.90;99.90;;;;;;5074494;28;20043;-30
2022/11/11 09:39:49;;;;;;;37.60;24.55;;;10.90;99.90;;;;;;5058074;28;20048;-29
2022/11/11 09:42:38;;;;;;;43.25;27.17;;;10.90;99.90;;;;;;5075587;28;20048;-30
2022/11/11 09:45:35;;;;;;;44.75;25.27;;;10.80;99.90;;;;;;5075517;28;20157;-31
2022/11/11 09:48:22;;;;;;;31.27;21.73;;;10.80;99.90;;;;;;5075477;28;20487;-29
2022/11/11 09:50:53;;;;;;;38.33;25.40;;;10.80;99.90;;;;;;5074759;28;20079;-30
2022/11/11 09:53:23;;;;;;;38.88;25.38;;;10.80;99.90;;;;;;5075942;28;20098;-30
2022/11/11 09:55:54;;;;;;;35.13;24.15;;;10.80;99.90;;;;;;5075144;28;20044;-30
2022/11/11 09:58:33;;;;;;;39.53;26.63;;;10.80;99.90;;;;;;5075148;28;20052;-30
2022/11/11 10:01:14;;;;;;;38.78;25.48;;;10.80;99.90;;;;;;5075214;28;20123;-30
2022/11/11 10:03:49;;;;;;;36.58;24.08;;;10.80;99.90;;;;;;5075343;28;20518;-29
2022/11/11 10:06:22;;;;;;;43.15;26.30;;;10.80;99.90;;;;;;5075064;28;20131;-30
2022/11/11 10:09:16;;;;;;;34.78;23.90;;;10.80;99.90;;;;;;5075057;28;20055;-30
2022/11/11 10:12:00;;;;;;;35.72;23.45;;;10.80;99.90;;;;;;5075414;28;20189;-30
2022/11/11 10:14:37;;;;;;;35.88;23.80;;;10.80;99.90;;;;;;5074800;28;20053;-30
2022/11/11 10:17:47;;;;;;;37.88;24.42;;;10.80;99.90;;;;;;5074248;28;20129;-30
2022/11/11 10:20:28;;;;;;;38.75;25.23;;;10.80;99.90;;;;;;5062409;28;20097;-30
2022/11/11 10:23:11;;;;;;;34.80;24.35;;;10.90;99.90;;;;;;5074622;28;20048;-31
2022/11/11 10:25:41;;;;;;;31.00;20.25;;;10.90;99.90;;;;;;5074691;28;20040;-30
2022/11/11 10:28:12;;;;;;;37.85;23.00;;;10.90;99.90;;;;;;5074577;28;20052;-31
2022/11/11 10:30:38;;;;;;;30.33;19.00;;;11.00;99.90;;;;;;5075557;28;20070;-30
2022/11/11 10:33:15;;;;;;;30.85;19.58;;;11.10;99.90;;;;;;5074717;28;20550;-30
2022/11/11 10:35:41;;;;;;;35.42;24.83;;;11.00;99.90;;;;;;5074364;28;20051;-30
2022/11/11 10:38:10;;;;;;;31.77;21.15;;;11.10;99.90;;;;;;5074366;28;20040;-30
2022/11/11 10:40:52;;;;;;;33.53;21.60;;;11.10;99.90;;;;;;5073860;28;20059;-30
2022/11/11 10:43:26;;;;;;;35.65;21.90;;;11.20;99.90;;;;;;5074279;28;20138;-29
2022/11/11 10:46:04;;;;;;;33.80;21.90;;;11.20;99.90;;;;;;5073914;28;20591;-29
2022/11/11 10:48:59;;;;;;;30.50;20.83;;;11.20;99.90;;;;;;5074893;28;20131;-29
2022/11/11 10:51:29;;;;;;;27.55;19.98;;;11.00;99.90;;;;;;5065878;28;20064;-30
2022/11/11 10:54:09;;;;;;;30.45;20.30;;;11.20;99.90;;;;;;5074645;28;20044;-30
2022/11/11 10:56:38;;;;;;;30.10;22.08;;;11.10;99.90;;;;;;5074737;28;20045;-30
2022/11/11 10:59:28;;;;;;;29.98;20.90;;;11.20;99.90;;;;;;5074916;28;20134;-30
2022/11/11 11:01:58;;;;;;;29.90;20.40;;;11.20;99.90;;;;;;5074673;28;20131;-31
2022/11/11 11:05:05;;;;;;;30.95;20.92;;;11.20;99.90;;;;;;5074519;28;20044;-32
2022/11/11 11:07:45;;;;;;;28.88;19.88;;;11.30;99.90;;;;;;5073094;28;20059;-30
2022/11/11 11:10:27;;;;;;;28.20;19.48;;;11.40;99.90;;;;;;5073793;28;20040;-30
2022/11/11 11:13:04;;;;;;;28.80;19.20;;;11.30;99.90;;;;;;5073810;28;20052;-30
2022/11/11 11:15:34;;;;;;;31.00;21.27;;;11.30;99.90;;;;;;5073832;28;20047;-30
2022/11/11 11:18:19;;;;;;;29.35;19.98;;;11.30;99.90;;;;;;5072803;28;20394;-29
2022/11/11 11:20:59;;;;;;;27.13;19.52;;;11.30;99.90;;;;;;5073815;28;20052;-31
2022/11/11 11:23:43;;;;;;;26.58;18.48;;;11.30;99.90;;;;;;5073491;28;20514;-30
2022/11/11 11:26:11;;;;;;;25.20;18.20;;;11.20;99.90;;;;;;5074310;28;20048;-28
2022/11/11 11:28:54;;;;;;;28.58;19.63;;;11.20;99.90;;;;;;5072992;28;20056;-30
2022/11/11 11:31:35;;;;;;;27.63;20.65;;;11.20;99.90;;;;;;5073241;28;20044;-30
2022/11/11 11:34:01;;;;;;;27.50;19.20;;;11.30;99.90;;;;;;5072468;28;20036;-30
2022/11/11 11:36:27;;;;;;;25.52;18.23;;;11.30;99.90;;;;;;5073712;28;20045;-34
2022/11/11 11:38:52;;;;;;;31.65;19.40;;;11.30;99.90;;;;;;5073505;28;20040;-30
2022/11/11 11:41:40;;;;;;;27.48;18.85;;;11.30;99.90;;;;;;5073862;28;20424;-30
2022/11/11 11:44:26;;;;;;;25.35;17.33;;;11.30;99.90;;;;;;5073382;28;20056;-29
2022/11/11 11:46:57;;;;;;;24.27;18.23;;;11.30;99.90;;;;;;5073516;28;20502;-29
2022/11/11 11:50:12;;;;;;;22.95;15.40;;;11.40;99.90;;;;;;5074129;28;20056;-29
2022/11/11 11:52:56;;;;;;;23.75;16.55;;;11.30;99.90;;;;;;5074112;28;20091;-29
2022/11/11 11:55:24;;;;;;;;;;;11.30;99.90;;;;;;5074465;28;20360;-30
2022/11/11 11:57:53;;;;;;;22.40;17.30;;;11.30;99.90;;;;;;5073448;28;20020;-30
2022/11/11 12:00:26;;;;;;;27.42;17.08;;;11.30;99.90;;;;;;5073409;28;20055;-29
2022/11/11 12:03:23;;;;;;;25.40;17.00;;;11.30;99.90;;;;;;5074244;28;20048;-30
2022/11/11 12:06:22;;;;;;;23.42;16.58;;;11.30;99.90;;;;;;5073043;28;20537;-29
2022/11/11 12:08:51;;;;;;;25.60;18.90;;;11.30;99.90;;;;;;5072630;28;20140;-31
2022/11/11 12:11:38;;;;;;;18.63;13.82;;;11.30;99.90;;;;;;5073177;28;20109;-30
2022/11/11 12:14:07;;;;;;;22.55;16.10;;;11.30;99.90;;;;;;5073130;28;20048;-29
2022/11/11 12:17:35;;;;;;;27.65;17.85;;;11.20;99.90;;;;;;5073287;28;20044;-30
2022/11/11 12:20:13;;;;;;;24.50;16.48;;;11.20;99.90;;;;;;5050894;28;20079;-29
2022/11/11 12:22:59;;;;;;;24.02;18.58;;;11.20;99.90;;;;;;5051448;28;20059;-29
2022/11/11 12:25:37;;;;;;;23.48;15.75;;;11.20;99.90;;;;;;5065776;28;20062;-29
2022/11/11 12:28:33;;;;;;;24.65;16.73;;;11.30;99.90;;;;;;5073738;28;20127;-30
2022/11/11 12:31:14;;;;;;;24.00;16.00;;;11.20;99.90;;;;;;5073008;28;20044;-30
2022/11/11 12:33:48;;;;;;;24.55;18.35;;;11.20;99.90;;;;;;5072998;28;20052;-30
2022/11/11 12:36:14;;;;;;;23.40;15.00;;;11.20;99.90;;;;;;5073038;28;20080;-30
2022/11/11 12:38:52;;;;;;;25.27;19.13;;;11.20;99.90;;;;;;5073020;28;20083;-30
2022/11/11 12:41:42;;;;;;;25.55;17.00;;;11.20;99.90;;;;;;5073066;28;20131;-29
2022/11/11 12:44:10;;;;;;;24.13;18.17;;;11.20;99.90;;;;;;5076642;28;20581;-30
2022/11/11 12:46:53;;;;;;;28.05;16.17;;;11.20;99.90;;;;;;5077152;28;20075;-28
2022/11/11 12:49:29;;;;;;;23.60;16.38;;;11.10;99.90;;;;;;5076517;28;20131;-30
2022/11/11 12:52:29;;;;;;;26.30;17.08;;;11.10;99.90;;;;;;5076559;28;20048;-29
2022/11/11 12:55:03;;;;;;;30.63;19.67;;;11.10;99.90;;;;;;5076685;28;20052;-30
2022/11/11 12:58:01;;;;;;;23.90;17.83;;;11.10;99.90;;;;;;5076477;28;20131;-29
2022/11/11 13:00:27;;;;;;;26.73;19.40;;;11.00;99.90;;;;;;5054622;28;20083;-29
2022/11/11 13:03:21;;;;;;;24.05;16.98;;;11.00;99.90;;;;;;5076362;28;20479;-30
2022/11/11 13:06:09;;;;;;;25.52;18.35;;;10.90;99.90;;;;;;5076363;28;20040;-29
2022/11/11 13:09:17;;;;;;;27.02;19.48;;;10.90;99.90;;;;;;5075796;28;20055;-30
2022/11/11 13:11:55;;;;;;;25.65;18.35;;;11.00;99.90;;;;;;5058840;28;20051;-29
2022/11/11 13:14:53;;;;;;;24.85;17.50;;;10.90;99.90;;;;;;5076709;28;20481;-30
2022/11/11 13:17:20;;;;;;;28.98;19.27;;;10.90;99.90;;;;;;5076687;28;20447;-30
2022/11/11 13:20:01;;;;;;;30.38;21.40;;;10.90;99.90;;;;;;5076023;28;20060;-30
2022/11/11 13:22:31;;;;;;;30.05;21.50;;;10.90;99.90;;;;;;5076774;28;20040;-29
2022/11/11 13:25:01;;;;;;;30.73;20.77;;;10.90;99.90;;;;;;5075846;28;20395;-30
2022/11/11 13:27:46;;;;;;;33.05;23.10;;;10.90;99.90;;;;;;5076472;28;20045;-29
2022/11/11 13:30:49;;;;;;;30.80;19.42;;;10.90;99.90;;;;;;5074766;28;20494;-29
2022/11/11 13:33:21;;;;;;;33.97;21.27;;;10.90;99.90;;;;;;5075722;28;20052;-29
2022/11/11 13:35:59;;;;;;;28.85;18.77;;;10.80;99.90;;;;;;5076446;28;20045;-30
2022/11/11 13:38:28;;;;;;;32.50;22.88;;;10.90;99.90;;;;;;5075636;28;20044;-29
2022/11/11 13:40:56;;;;;;;32.05;21.92;;;10.80;99.90;;;;;;5076191;28;20045;-29
2022/11/11 13:43:35;;;;;;;30.10;22.05;;;10.80;99.90;;;;;;5057645;28;20059;-30
2022/11/11 13:46:04;;;;;;;30.42;20.90;;;10.80;99.90;;;;;;5075811;28;20380;-29
2022/11/11 13:48:29;;;;;;;33.88;23.33;;;10.80;99.90;;;;;;5075507;28;20403;-29
2022/11/11 13:51:34;;;;;;;31.00;21.83;;;10.80;99.90;;;;;;5075314;28;20057;-29
2022/11/11 13:54:02;;;;;;;32.88;20.83;;;10.80;99.90;;;;;;5052532;28;20053;-30
2022/11/11 13:56:33;;;;;;;32.35;21.27;;;10.80;99.90;;;;;;5071321;28;20105;-30
2022/11/11 13:59:00;;;;;;;31.65;22.20;;;10.90;99.90;;;;;;5076087;28;20279;-30
2022/11/11 14:01:36;;;;;;;28.50;19.55;;;10.90;99.90;;;;;;5074258;28;20514;-30
2022/11/11 14:04:07;;;;;;;31.55;19.75;;;10.90;99.90;;;;;;5075392;28;20090;-29
2022/11/11 14:06:32;;;;;;;28.52;19.67;;;10.90;99.90;;;;;;5075841;28;20040;-30
2022/11/11 14:08:58;;;;;;;31.70;20.92;;;11.00;99.90;;;;;;5075038;28;20048;-30
2022/11/11 14:11:24;;;;;;;27.88;19.73;;;11.00;99.90;;;;;;5075123;28;20044;-31
2022/11/11 14:13:54;;;;;;;34.17;21.15;;;11.00;99.90;;;;;;5073572;28;20524;-30
2022/11/11 14:16:35;;;;;;;33.35;21.73;;;11.00;99.90;;;;;;5073665;28;20048;-30